CEB490 RPVM-RPMZ
Flight info
| Callsign | CEB490 |
|---|---|
| Flight time | 0h 49m |
| Altitude | 34000 |
| Route | ALDIN4P ALDIN G578 PARAL PARAL2E |
| Aircraft | A20N/M-SDE2E3FGHIRWXY/LB1 |
Departure
| Time | 2026-05-01 09:09 |
|---|---|
| Airport | Mactan Cebu International Airport (RPVM) |
Arrival
| Time | 2026-05-01 09:58 |
|---|---|
| Airport | Zamboanga International Airport (RPMZ) |
| Time | Latitude | Longitude | Altitude | Speed | Heading |
|---|---|---|---|---|---|
| 2026-05-01 08:50 | 10.31596 | 123.98020 | 37 ft | 0 kts | 314° |
| 2026-05-01 08:57 | 10.31587 | 123.98029 | 37 ft | 2 kts | 314° |
| 2026-05-01 08:57 | 10.31577 | 123.98041 | 37 ft | 2 kts | 314° |
| 2026-05-01 08:58 | 10.31573 | 123.98044 | 37 ft | 2 kts | 314° |
| 2026-05-01 08:59 | 10.31545 | 123.98084 | 37 ft | 2 kts | 246° |
| 2026-05-01 08:59 | 10.31554 | 123.98094 | 37 ft | 0 kts | 224° |
| 2026-05-01 09:02 | 10.31552 | 123.98093 | 37 ft | 2 kts | 225° |
| 2026-05-01 09:02 | 10.31522 | 123.98061 | 37 ft | 7 kts | 226° |
| 2026-05-01 09:02 | 10.31481 | 123.98018 | 37 ft | 9 kts | 226° |
| 2026-05-01 09:02 | 10.31433 | 123.97968 | 37 ft | 10 kts | 225° |
| 2026-05-01 09:03 | 10.31378 | 123.97913 | 37 ft | 11 kts | 224° |
| 2026-05-01 09:03 | 10.31311 | 123.97908 | 37 ft | 10 kts | 150° |
| 2026-05-01 09:03 | 10.31258 | 123.97963 | 36 ft | 10 kts | 131° |
| 2026-05-01 09:03 | 10.31193 | 123.97973 | 36 ft | 11 kts | 220° |
| 2026-05-01 09:04 | 10.31135 | 123.97913 | 36 ft | 12 kts | 226° |
| 2026-05-01 09:04 | 10.31071 | 123.97848 | 36 ft | 13 kts | 224° |
| 2026-05-01 09:04 | 10.31002 | 123.97779 | 36 ft | 14 kts | 225° |
| 2026-05-01 09:04 | 10.30930 | 123.97705 | 36 ft | 15 kts | 225° |
| 2026-05-01 09:05 | 10.30855 | 123.97627 | 36 ft | 15 kts | 224° |
| 2026-05-01 09:05 | 10.30774 | 123.97549 | 36 ft | 16 kts | 223° |
| 2026-05-01 09:05 | 10.30693 | 123.97467 | 36 ft | 16 kts | 224° |
| 2026-05-01 09:05 | 10.30609 | 123.97383 | 36 ft | 17 kts | 224° |
| 2026-05-01 09:06 | 10.30524 | 123.97299 | 36 ft | 16 kts | 224° |
| 2026-05-01 09:06 | 10.30438 | 123.97214 | 36 ft | 17 kts | 224° |
| 2026-05-01 09:06 | 10.30369 | 123.97157 | 36 ft | 9 kts | 190° |
| 2026-05-01 09:06 | 10.30316 | 123.97192 | 36 ft | 10 kts | 131° |
| 2026-05-01 09:07 | 10.30317 | 123.97233 | 36 ft | 0 kts | 44° |
| 2026-05-01 09:08 | 10.30318 | 123.97234 | 36 ft | 0 kts | 44° |
| 2026-05-01 09:08 | 10.30325 | 123.97241 | 36 ft | 2 kts | 44° |
| 2026-05-01 09:08 | 10.30472 | 123.97389 | 36 ft | 67 kts | 45° |
| 2026-05-01 09:08 | 10.30968 | 123.97885 | 37 ft | 131 kts | 45° |
| 2026-05-01 09:09 | 10.31705 | 123.98640 | 282 ft | 157 kts | 46° |
| 2026-05-01 09:09 | 10.32465 | 123.99421 | 902 ft | 158 kts | 45° |
| 2026-05-01 09:09 | 10.33241 | 124.00192 | 1553 ft | 159 kts | 46° |
| 2026-05-01 09:09 | 10.34026 | 124.01009 | 2110 ft | 167 kts | 56° |
| 2026-05-01 09:10 | 10.34316 | 124.02167 | 2516 ft | 184 kts | 100° |
| 2026-05-01 09:10 | 10.33685 | 124.03359 | 2972 ft | 204 kts | 127° |
| 2026-05-01 09:10 | 10.32761 | 124.04520 | 3475 ft | 220 kts | 125° |
| 2026-05-01 09:10 | 10.31777 | 124.05841 | 3938 ft | 242 kts | 124° |
| 2026-05-01 09:11 | 10.30781 | 124.07206 | 4757 ft | 246 kts | 123° |
| 2026-05-01 09:11 | 10.29756 | 124.08625 | 5437 ft | 258 kts | 123° |
| 2026-05-01 09:11 | 10.28669 | 124.10140 | 6078 ft | 271 kts | 123° |
| 2026-05-01 09:11 | 10.28242 | 124.10735 | 6384 ft | 273 kts | 123° |
| 2026-05-01 09:12 | 10.27589 | 124.11648 | 6900 ft | 275 kts | 123° |
| 2026-05-01 09:12 | 10.26462 | 124.13221 | 7804 ft | 278 kts | 123° |
| 2026-05-01 09:12 | 10.25334 | 124.14798 | 8646 ft | 282 kts | 123° |
| 2026-05-01 09:12 | 10.24175 | 124.16415 | 9479 ft | 285 kts | 123° |
| 2026-05-01 09:13 | 10.23009 | 124.18044 | 10258 ft | 288 kts | 123° |
| 2026-05-01 09:13 | 10.21803 | 124.19730 | 10772 ft | 302 kts | 123° |
| 2026-05-01 09:13 | 10.20370 | 124.21355 | 11152 ft | 322 kts | 141° |
| 2026-05-01 09:13 | 10.18318 | 124.22343 | 11768 ft | 334 kts | 165° |
| 2026-05-01 09:14 | 10.15957 | 124.22441 | 12514 ft | 341 kts | 186° |
| 2026-05-01 09:14 | 10.13641 | 124.21983 | 13233 ft | 344 kts | 189° |
| 2026-05-01 09:14 | 10.11253 | 124.21480 | 13918 ft | 348 kts | 189° |
| 2026-05-01 09:14 | 10.08858 | 124.20980 | 14469 ft | 351 kts | 189° |
| 2026-05-01 09:15 | 10.06433 | 124.20482 | 14901 ft | 356 kts | 189° |
| 2026-05-01 09:15 | 10.03994 | 124.19988 | 15564 ft | 358 kts | 189° |
| 2026-05-01 09:15 | 10.01572 | 124.19498 | 16217 ft | 360 kts | 189° |
| 2026-05-01 09:15 | 9.99082 | 124.18999 | 16833 ft | 364 kts | 189° |
| 2026-05-01 09:16 | 9.96576 | 124.18494 | 17418 ft | 368 kts | 189° |
| 2026-05-01 09:16 | 9.94066 | 124.17990 | 17993 ft | 371 kts | 189° |
| 2026-05-01 09:16 | 9.91501 | 124.17475 | 18568 ft | 374 kts | 189° |
| 2026-05-01 09:17 | 9.86331 | 124.16437 | 19660 ft | 381 kts | 189° |
| 2026-05-01 09:17 | 9.83711 | 124.15900 | 20192 ft | 384 kts | 191° |
| 2026-05-01 09:17 | 9.78798 | 124.13637 | 21228 ft | 396 kts | 214° |
| 2026-05-01 09:18 | 9.76637 | 124.11906 | 21736 ft | 400 kts | 218° |
| 2026-05-01 09:18 | 9.72321 | 124.08230 | 22749 ft | 406 kts | 218° |
| 2026-05-01 09:19 | 9.67966 | 124.04536 | 23803 ft | 411 kts | 218° |
| 2026-05-01 09:19 | 9.65759 | 124.02675 | 24315 ft | 413 kts | 218° |
| 2026-05-01 09:19 | 9.63538 | 124.00808 | 24808 ft | 416 kts | 218° |
| 2026-05-01 09:20 | 9.59056 | 123.97043 | 25764 ft | 421 kts | 218° |
| 2026-05-01 09:20 | 9.54519 | 123.93234 | 26684 ft | 426 kts | 218° |
| 2026-05-01 09:21 | 9.49925 | 123.89380 | 27574 ft | 430 kts | 218° |
| 2026-05-01 09:21 | 9.47620 | 123.87447 | 27991 ft | 433 kts | 218° |
| 2026-05-01 09:21 | 9.42945 | 123.83527 | 28812 ft | 436 kts | 218° |
| 2026-05-01 09:22 | 9.38423 | 123.79388 | 29564 ft | 442 kts | 225° |
| 2026-05-01 09:22 | 9.34693 | 123.74434 | 30261 ft | 449 kts | 237° |
| 2026-05-01 09:23 | 9.33159 | 123.71667 | 30594 ft | 451 kts | 240° |
| 2026-05-01 09:23 | 9.30261 | 123.66015 | 31499 ft | 449 kts | 241° |
| 2026-05-01 09:24 | 9.27415 | 123.60460 | 32370 ft | 446 kts | 240° |
| 2026-05-01 09:24 | 9.25978 | 123.57675 | 32743 ft | 447 kts | 240° |
| 2026-05-01 09:24 | 9.23094 | 123.52101 | 33470 ft | 449 kts | 240° |
| 2026-05-01 09:25 | 9.20179 | 123.46474 | 33809 ft | 452 kts | 240° |
| 2026-05-01 09:26 | 9.15796 | 123.38032 | 33820 ft | 451 kts | 239° |
| 2026-05-01 09:26 | 9.12267 | 123.32813 | 33823 ft | 448 kts | 227° |
| 2026-05-01 09:26 | 9.10150 | 123.30494 | 33824 ft | 447 kts | 222° |
| 2026-05-01 09:27 | 9.05339 | 123.26547 | 33821 ft | 444 kts | 211° |
| 2026-05-01 09:27 | 9.02667 | 123.24911 | 33819 ft | 443 kts | 208° |
| 2026-05-01 09:28 | 8.97305 | 123.21860 | 33811 ft | 443 kts | 207° |
| 2026-05-01 09:28 | 8.91915 | 123.18805 | 33812 ft | 443 kts | 207° |
| 2026-05-01 09:29 | 8.83817 | 123.14191 | 33815 ft | 443 kts | 207° |
| 2026-05-01 09:30 | 8.75760 | 123.09597 | 33818 ft | 444 kts | 207° |
| 2026-05-01 09:30 | 8.67659 | 123.04976 | 33816 ft | 445 kts | 207° |
| 2026-05-01 09:31 | 8.62247 | 123.01891 | 33813 ft | 445 kts | 207° |
| 2026-05-01 09:32 | 8.54125 | 122.97259 | 33817 ft | 446 kts | 207° |
| 2026-05-01 09:32 | 8.46031 | 122.92647 | 33822 ft | 446 kts | 207° |
| 2026-05-01 09:33 | 8.40606 | 122.89558 | 33820 ft | 446 kts | 207° |
| 2026-05-01 09:34 | 8.32447 | 122.84914 | 33822 ft | 446 kts | 207° |
| 2026-05-01 09:34 | 8.24333 | 122.80296 | 33799 ft | 446 kts | 207° |
| 2026-05-01 09:35 | 8.21601 | 122.78741 | 33279 ft | 447 kts | 207° |
| 2026-05-01 09:35 | 8.16098 | 122.75615 | 31088 ft | 463 kts | 207° |
| 2026-05-01 09:35 | 8.13275 | 122.74010 | 30143 ft | 466 kts | 207° |
| 2026-05-01 09:36 | 8.10476 | 122.72420 | 29406 ft | 465 kts | 207° |
| 2026-05-01 09:36 | 8.07680 | 122.70830 | 28785 ft | 460 kts | 207° |
| 2026-05-01 09:36 | 8.04900 | 122.69248 | 28219 ft | 455 kts | 207° |
| 2026-05-01 09:36 | 8.02125 | 122.67670 | 27692 ft | 450 kts | 207° |
| 2026-05-01 09:37 | 7.99421 | 122.66135 | 27190 ft | 445 kts | 207° |
| 2026-05-01 09:37 | 7.94094 | 122.63108 | 26185 ft | 436 kts | 207° |
| 2026-05-01 09:37 | 7.91432 | 122.61596 | 25676 ft | 431 kts | 207° |
| 2026-05-01 09:38 | 7.86260 | 122.58659 | 24677 ft | 423 kts | 207° |
| 2026-05-01 09:38 | 7.83707 | 122.57210 | 24185 ft | 419 kts | 207° |
| 2026-05-01 09:38 | 7.81175 | 122.55774 | 23692 ft | 416 kts | 207° |
| 2026-05-01 09:39 | 7.76190 | 122.52943 | 22719 ft | 408 kts | 207° |
| 2026-05-01 09:39 | 7.73725 | 122.51547 | 22231 ft | 405 kts | 207° |
| 2026-05-01 09:39 | 7.71246 | 122.50139 | 21741 ft | 402 kts | 207° |
| 2026-05-01 09:40 | 7.68833 | 122.48772 | 21251 ft | 400 kts | 207° |
| 2026-05-01 09:40 | 7.63995 | 122.46028 | 20242 ft | 396 kts | 207° |
| 2026-05-01 09:40 | 7.61609 | 122.44676 | 19737 ft | 395 kts | 207° |
| 2026-05-01 09:41 | 7.59183 | 122.43301 | 19228 ft | 393 kts | 208° |
| 2026-05-01 09:41 | 7.54458 | 122.40623 | 18223 ft | 389 kts | 208° |
| 2026-05-01 09:41 | 7.52097 | 122.39284 | 17719 ft | 388 kts | 208° |
| 2026-05-01 09:42 | 7.49746 | 122.37952 | 17215 ft | 386 kts | 208° |
| 2026-05-01 09:42 | 7.47394 | 122.36619 | 16729 ft | 384 kts | 207° |
| 2026-05-01 09:42 | 7.42767 | 122.33994 | 15948 ft | 373 kts | 207° |
| 2026-05-01 09:43 | 7.38320 | 122.31475 | 15188 ft | 359 kts | 207° |
| 2026-05-01 09:43 | 7.36169 | 122.30255 | 14592 ft | 348 kts | 207° |
| 2026-05-01 09:43 | 7.34090 | 122.29079 | 14039 ft | 335 kts | 207° |
| 2026-05-01 09:44 | 7.30172 | 122.26885 | 13104 ft | 308 kts | 201° |
| 2026-05-01 09:44 | 7.28172 | 122.26358 | 12462 ft | 297 kts | 179° |
| 2026-05-01 09:44 | 7.26134 | 122.26553 | 11806 ft | 290 kts | 166° |
| 2026-05-01 09:45 | 7.24169 | 122.26922 | 11147 ft | 286 kts | 166° |
| 2026-05-01 09:45 | 7.20340 | 122.27644 | 10152 ft | 270 kts | 166° |
| 2026-05-01 09:45 | 7.18510 | 122.27979 | 9633 ft | 264 kts | 166° |
| 2026-05-01 09:46 | 7.16704 | 122.28306 | 9122 ft | 259 kts | 166° |
| 2026-05-01 09:46 | 7.14951 | 122.28623 | 8731 ft | 255 kts | 166° |
| 2026-05-01 09:46 | 7.13209 | 122.28934 | 8369 ft | 249 kts | 166° |
| 2026-05-01 09:46 | 7.11522 | 122.29236 | 7827 ft | 249 kts | 166° |
| 2026-05-01 09:47 | 7.09791 | 122.29547 | 7242 ft | 250 kts | 166° |
| 2026-05-01 09:47 | 7.08084 | 122.29851 | 6926 ft | 246 kts | 166° |
| 2026-05-01 09:47 | 7.06406 | 122.30151 | 6662 ft | 242 kts | 167° |
| 2026-05-01 09:47 | 7.04748 | 122.30445 | 6419 ft | 238 kts | 167° |
| 2026-05-01 09:48 | 7.03139 | 122.30730 | 6188 ft | 235 kts | 167° |
| 2026-05-01 09:48 | 7.01530 | 122.31015 | 5958 ft | 231 kts | 167° |
| 2026-05-01 09:48 | 6.99960 | 122.31294 | 5748 ft | 226 kts | 167° |
| 2026-05-01 09:48 | 6.98405 | 122.31572 | 5535 ft | 222 kts | 166° |
| 2026-05-01 09:49 | 6.96990 | 122.32095 | 5258 ft | 216 kts | 136° |
| 2026-05-01 09:49 | 6.96171 | 122.33315 | 4976 ft | 210 kts | 104° |
| 2026-05-01 09:49 | 6.96089 | 122.34748 | 4693 ft | 209 kts | 77° |
| 2026-05-01 09:49 | 6.96592 | 122.36124 | 4429 ft | 208 kts | 64° |
| 2026-05-01 09:50 | 6.97507 | 122.37231 | 4319 ft | 211 kts | 34° |
| 2026-05-01 09:50 | 6.98912 | 122.37717 | 4281 ft | 217 kts | 4° |
| 2026-05-01 09:50 | 7.00385 | 122.37436 | 4267 ft | 221 kts | 334° |
| 2026-05-01 09:50 | 7.01536 | 122.36408 | 4263 ft | 224 kts | 301° |
| 2026-05-01 09:51 | 7.01986 | 122.34923 | 4178 ft | 223 kts | 269° |
| 2026-05-01 09:51 | 7.01581 | 122.33404 | 3782 ft | 227 kts | 235° |
| 2026-05-01 09:51 | 7.00438 | 122.32354 | 3470 ft | 225 kts | 205° |
| 2026-05-01 09:51 | 6.98994 | 122.31735 | 3217 ft | 223 kts | 200° |
| 2026-05-01 09:52 | 6.97566 | 122.31152 | 2957 ft | 222 kts | 201° |
| 2026-05-01 09:52 | 6.96139 | 122.30549 | 2753 ft | 219 kts | 201° |
| 2026-05-01 09:52 | 6.94717 | 122.29934 | 2634 ft | 218 kts | 202° |
| 2026-05-01 09:52 | 6.93344 | 122.29333 | 2507 ft | 210 kts | 202° |
| 2026-05-01 09:53 | 6.92052 | 122.28746 | 2458 ft | 202 kts | 210° |
| 2026-05-01 09:53 | 6.91094 | 122.27711 | 2447 ft | 204 kts | 248° |
| 2026-05-01 09:53 | 6.90836 | 122.26311 | 2400 ft | 204 kts | 270° |
| 2026-05-01 09:53 | 6.90918 | 122.24899 | 2387 ft | 194 kts | 276° |
| 2026-05-01 09:54 | 6.91052 | 122.23634 | 2291 ft | 174 kts | 276° |
| 2026-05-01 09:54 | 6.91164 | 122.22470 | 2169 ft | 157 kts | 275° |
| 2026-05-01 09:54 | 6.91249 | 122.21392 | 2068 ft | 155 kts | 274° |
| 2026-05-01 09:54 | 6.91322 | 122.20309 | 1972 ft | 154 kts | 273° |
| 2026-05-01 09:55 | 6.91391 | 122.19229 | 1857 ft | 154 kts | 273° |
| 2026-05-01 09:55 | 6.91462 | 122.18158 | 1758 ft | 154 kts | 273° |
| 2026-05-01 09:55 | 6.91532 | 122.17072 | 1704 ft | 154 kts | 273° |
| 2026-05-01 09:55 | 6.91599 | 122.15996 | 1660 ft | 154 kts | 273° |
| 2026-05-01 09:56 | 6.91666 | 122.14924 | 1518 ft | 154 kts | 274° |
| 2026-05-01 09:56 | 6.91733 | 122.13856 | 1355 ft | 152 kts | 274° |
| 2026-05-01 09:56 | 6.91797 | 122.12820 | 1135 ft | 142 kts | 274° |
| 2026-05-01 09:56 | 6.91856 | 122.11865 | 965 ft | 135 kts | 274° |
| 2026-05-01 09:57 | 6.91918 | 122.10922 | 792 ft | 134 kts | 274° |
| 2026-05-01 09:57 | 6.91981 | 122.09985 | 616 ft | 132 kts | 274° |
| 2026-05-01 09:57 | 6.92041 | 122.09071 | 439 ft | 131 kts | 273° |
| 2026-05-01 09:57 | 6.92100 | 122.08167 | 270 ft | 129 kts | 274° |
| 2026-05-01 09:58 | 6.92159 | 122.07269 | 120 ft | 128 kts | 273° |
| 2026-05-01 09:58 | 6.92218 | 122.06409 | 63 ft | 110 kts | 273° |
| 2026-05-01 09:58 | 6.92256 | 122.05760 | 63 ft | 78 kts | 274° |
| 2026-05-01 09:58 | 6.92284 | 122.05349 | 64 ft | 27 kts | 271° |
| 2026-05-01 09:59 | 6.92277 | 122.05233 | 64 ft | 8 kts | 293° |
| 2026-05-01 09:59 | 6.92293 | 122.05235 | 64 ft | 3 kts | 62° |
| 2026-05-01 09:59 | 6.92294 | 122.05273 | 64 ft | 7 kts | 94° |
| 2026-05-01 09:59 | 6.92286 | 122.05357 | 63 ft | 15 kts | 96° |
| 2026-05-01 10:00 | 6.92273 | 122.05489 | 63 ft | 22 kts | 94° |
| 2026-05-01 10:00 | 6.92262 | 122.05653 | 63 ft | 23 kts | 94° |
| 2026-05-01 10:00 | 6.92251 | 122.05808 | 63 ft | 21 kts | 94° |
| 2026-05-01 10:00 | 6.92242 | 122.05946 | 63 ft | 11 kts | 98° |
| 2026-05-01 10:01 | 6.92207 | 122.05997 | 63 ft | 9 kts | 142° |
| 2026-05-01 10:01 | 6.92153 | 122.06041 | 62 ft | 8 kts | 132° |
| 2026-05-01 10:01 | 6.92141 | 122.06103 | 62 ft | 9 kts | 92° |
| 2026-05-01 10:01 | 6.92137 | 122.06174 | 62 ft | 6 kts | 95° |
| 2026-05-01 10:02 | 6.92128 | 122.06203 | 62 ft | 4 kts | 131° |
| 2026-05-01 10:02 | 6.92093 | 122.06220 | 62 ft | 6 kts | 158° |
| 2026-05-01 10:02 | 6.92058 | 122.06235 | 62 ft | 5 kts | 155° |
| 2026-05-01 10:02 | 6.92053 | 122.06238 | 62 ft | 0 kts | 155° |